Whitman, Nebraska
Current Conditions -  °F | °C
As of 4:55 PM on Friday 24 Oct 2014 (Local Time) from KTIF Reporting Station
Clear Clear  
Wind Chill: 80°   Ceiling: Unl
Heat Index: 80°   Visibility: 10mi
Dew Point: 33°   Wind: 0mph
Humidity: 18%   Direction: NA
Pressure: 30"   Gusts: NA
Location:  42.04°N, 101.52°W
Report Text: KTIF 242255Z AUTO 00000KT 10SM CLR 27/01 A3000 RMK AO2 T02680008
Loading
Personal Weather Stations






























Interactive Weather Map
Tropical Storm Tracking
New forecast layout! Learn more

10-Day Weather Forecast

Advertisements
Track Severe Weather on mobile